sensor_id;sensor_type;location;lat;lon;timestamp;pressure;altitude;pressure_sealevel;temperature;humidity
76229;BME280;65021;53.174;18.160;2023-05-23T00:01:44;101075.38;;;11.94;72.85
76229;BME280;65021;53.174;18.160;2023-05-23T00:04:12;101067.30;;;11.96;72.74
76229;BME280;65021;53.174;18.160;2023-05-23T00:06:42;101064.91;;;12.02;71.86
76229;BME280;65021;53.174;18.160;2023-05-23T00:09:15;101066.05;;;12.07;73.27
76229;BME280;65021;53.174;18.160;2023-05-23T00:11:42;101065.92;;;12.05;72.96
76229;BME280;65021;53.174;18.160;2023-05-23T00:14:12;101064.07;;;12.04;72.37
76229;BME280;65021;53.174;18.160;2023-05-23T00:16:40;101065.16;;;12.01;72.86
76229;BME280;65021;53.174;18.160;2023-05-23T00:19:08;101059.38;;;11.99;73.26
76229;BME280;65021;53.174;18.160;2023-05-23T00:21:36;101060.02;;;11.94;72.55
76229;BME280;65021;53.174;18.160;2023-05-23T00:24:03;101062.16;;;11.88;72.87
76229;BME280;65021;53.174;18.160;2023-05-23T00:26:30;101059.52;;;11.78;73.23
76229;BME280;65021;53.174;18.160;2023-05-23T00:28:57;101059.70;;;11.70;73.06
76229;BME280;65021;53.174;18.160;2023-05-23T00:31:24;101058.64;;;11.62;73.94
76229;BME280;65021;53.174;18.160;2023-05-23T00:33:50;101061.62;;;11.53;73.66
76229;BME280;65021;53.174;18.160;2023-05-23T00:36:17;101060.07;;;11.43;74.02
76229;BME280;65021;53.174;18.160;2023-05-23T00:38:44;101062.09;;;11.34;74.24
76229;BME280;65021;53.174;18.160;2023-05-23T00:41:13;101060.20;;;11.22;74.68
76229;BME280;65021;53.174;18.160;2023-05-23T00:43:51;101063.23;;;11.10;74.24
76229;BME280;65021;53.174;18.160;2023-05-23T00:46:18;101060.54;;;11.03;75.36
76229;BME280;65021;53.174;18.160;2023-05-23T00:48:44;101060.58;;;10.99;75.68
76229;BME280;65021;53.174;18.160;2023-05-23T00:51:12;101060.23;;;10.97;75.47
76229;BME280;65021;53.174;18.160;2023-05-23T00:53:39;101058.73;;;10.92;75.58
76229;BME280;65021;53.174;18.160;2023-05-23T00:56:08;101061.26;;;10.91;75.78
76229;BME280;65021;53.174;18.160;2023-05-23T00:58:38;101058.36;;;10.86;75.20
76229;BME280;65021;53.174;18.160;2023-05-23T01:01:08;101057.49;;;10.85;75.92
76229;BME280;65021;53.174;18.160;2023-05-23T01:03:35;101051.45;;;10.83;75.51
76229;BME280;65021;53.174;18.160;2023-05-23T01:06:01;101050.45;;;10.84;76.56
76229;BME280;65021;53.174;18.160;2023-05-23T01:08:28;101050.98;;;10.81;76.08
76229;BME280;65021;53.174;18.160;2023-05-23T01:11:00;101048.45;;;10.77;75.84
76229;BME280;65021;53.174;18.160;2023-05-23T01:13:41;101047.08;;;10.74;76.45
76229;BME280;65021;53.174;18.160;2023-05-23T01:16:16;101050.45;;;10.72;77.08
76229;BME280;65021;53.174;18.160;2023-05-23T01:18:58;101049.02;;;10.71;77.48
76229;BME280;65021;53.174;18.160;2023-05-23T01:21:27;101052.98;;;10.69;76.69
76229;BME280;65021;53.174;18.160;2023-05-23T01:24:20;101055.42;;;10.69;76.97
76229;BME280;65021;53.174;18.160;2023-05-23T01:26:55;101056.86;;;10.64;76.25
76229;BME280;65021;53.174;18.160;2023-05-23T01:29:39;101054.63;;;10.62;76.68
76229;BME280;65021;53.174;18.160;2023-05-23T01:32:10;101057.77;;;10.63;76.65
76229;BME280;65021;53.174;18.160;2023-05-23T01:34:38;101056.27;;;10.64;77.26
76229;BME280;65021;53.174;18.160;2023-05-23T01:37:09;101055.94;;;10.61;76.55
76229;BME280;65021;53.174;18.160;2023-05-23T01:39:37;101053.12;;;10.59;76.12
76229;BME280;65021;53.174;18.160;2023-05-23T01:42:04;101053.09;;;10.58;76.27
76229;BME280;65021;53.174;18.160;2023-05-23T01:44:34;101049.06;;;10.51;76.93
76229;BME280;65021;53.174;18.160;2023-05-23T01:47:02;101053.30;;;10.45;76.61
76229;BME280;65021;53.174;18.160;2023-05-23T01:49:30;101051.67;;;10.48;77.95
76229;BME280;65021;53.174;18.160;2023-05-23T01:51:58;101045.87;;;10.47;76.92
76229;BME280;65021;53.174;18.160;2023-05-23T01:54:27;101047.73;;;10.46;77.35
76229;BME280;65021;53.174;18.160;2023-05-23T01:56:57;101042.22;;;10.43;77.85
76229;BME280;65021;53.174;18.160;2023-05-23T01:59:25;101038.72;;;10.38;78.22
76229;BME280;65021;53.174;18.160;2023-05-23T02:01:52;101037.64;;;10.30;78.71
76229;BME280;65021;53.174;18.160;2023-05-23T02:04:18;101038.31;;;10.23;78.91
76229;BME280;65021;53.174;18.160;2023-05-23T02:06:45;101036.33;;;10.13;79.50
76229;BME280;65021;53.174;18.160;2023-05-23T02:09:12;101034.46;;;10.04;79.21
76229;BME280;65021;53.174;18.160;2023-05-23T02:11:39;101033.84;;;9.98;79.96
76229;BME280;65021;53.174;18.160;2023-05-23T02:14:06;101031.71;;;9.91;79.71
76229;BME280;65021;53.174;18.160;2023-05-23T02:16:32;101031.80;;;9.86;80.04
76229;BME280;65021;53.174;18.160;2023-05-23T02:19:01;101029.95;;;9.83;80.86
76229;BME280;65021;53.174;18.160;2023-05-23T02:21:28;101029.84;;;9.81;81.19
76229;BME280;65021;53.174;18.160;2023-05-23T02:23:55;101026.77;;;9.81;81.40
76229;BME280;65021;53.174;18.160;2023-05-23T02:26:21;101028.14;;;9.78;80.81
76229;BME280;65021;53.174;18.160;2023-05-23T02:28:48;101025.27;;;9.75;80.93
76229;BME280;65021;53.174;18.160;2023-05-23T02:31:14;101021.01;;;9.72;80.59
76229;BME280;65021;53.174;18.160;2023-05-23T02:33:42;101016.36;;;9.68;80.64
76229;BME280;65021;53.174;18.160;2023-05-23T02:36:09;101015.96;;;9.66;80.55
76229;BME280;65021;53.174;18.160;2023-05-23T02:38:35;101013.42;;;9.64;80.66
76229;BME280;65021;53.174;18.160;2023-05-23T02:41:02;101012.45;;;9.64;81.56
76229;BME280;65021;53.174;18.160;2023-05-23T02:43:29;101013.68;;;9.64;81.26
76229;BME280;65021;53.174;18.160;2023-05-23T02:45:56;101014.72;;;9.66;81.44
76229;BME280;65021;53.174;18.160;2023-05-23T02:48:23;101014.28;;;9.67;81.05
76229;BME280;65021;53.174;18.160;2023-05-23T02:50:50;101011.95;;;9.69;81.74
76229;BME280;65021;53.174;18.160;2023-05-23T02:53:16;101009.98;;;9.72;81.79
76229;BME280;65021;53.174;18.160;2023-05-23T02:55:43;101006.11;;;9.77;82.10
76229;BME280;65021;53.174;18.160;2023-05-23T02:58:10;101001.06;;;9.81;81.22
76229;BME280;65021;53.174;18.160;2023-05-23T03:00:36;101009.85;;;9.93;80.40
76229;BME280;65021;53.174;18.160;2023-05-23T03:03:03;101008.75;;;10.18;80.08
76229;BME280;65021;53.174;18.160;2023-05-23T03:05:30;101006.65;;;10.50;79.36
76229;BME280;65021;53.174;18.160;2023-05-23T03:07:56;101001.15;;;10.87;78.18
76229;BME280;65021;53.174;18.160;2023-05-23T03:10:23;100996.53;;;11.24;77.14
76229;BME280;65021;53.174;18.160;2023-05-23T03:12:50;100994.73;;;11.44;76.20
76229;BME280;65021;53.174;18.160;2023-05-23T03:15:16;100997.16;;;11.61;75.90
76229;BME280;65021;53.174;18.160;2023-05-23T03:17:43;100992.61;;;12.01;75.06
76229;BME280;65021;53.174;18.160;2023-05-23T03:20:10;100993.46;;;12.45;74.11
76229;BME280;65021;53.174;18.160;2023-05-23T03:22:36;100996.89;;;12.87;72.63
76229;BME280;65021;53.174;18.160;2023-05-23T03:25:03;100993.30;;;13.22;71.89
76229;BME280;65021;53.174;18.160;2023-05-23T03:27:30;100988.20;;;13.54;71.16
76229;BME280;65021;53.174;18.160;2023-05-23T03:29:57;100990.48;;;13.78;70.38
76229;BME280;65021;53.174;18.160;2023-05-23T03:32:23;100994.02;;;13.95;70.34
76229;BME280;65021;53.174;18.160;2023-05-23T03:34:50;100994.23;;;14.02;69.81
76229;BME280;65021;53.174;18.160;2023-05-23T03:37:16;100993.40;;;14.08;70.19
76229;BME280;65021;53.174;18.160;2023-05-23T03:39:43;100989.38;;;14.14;69.60
76229;BME280;65021;53.174;18.160;2023-05-23T03:42:09;100990.70;;;14.09;69.53
76229;BME280;65021;53.174;18.160;2023-05-23T03:44:36;100987.35;;;14.07;69.60
76229;BME280;65021;53.174;18.160;2023-05-23T03:47:02;100984.13;;;14.14;69.73
76229;BME280;65021;53.174;18.160;2023-05-23T03:49:29;100982.54;;;14.34;69.95
76229;BME280;65021;53.174;18.160;2023-05-23T03:51:55;100979.41;;;14.58;69.56
76229;BME280;65021;53.174;18.160;2023-05-23T03:54:22;100975.38;;;14.80;69.72
76229;BME280;65021;53.174;18.160;2023-05-23T03:56:49;100967.83;;;14.89;68.90
76229;BME280;65021;53.174;18.160;2023-05-23T03:59:16;100968.02;;;14.94;69.05
76229;BME280;65021;53.174;18.160;2023-05-23T04:01:42;100966.45;;;15.11;68.57
76229;BME280;65021;53.174;18.160;2023-05-23T04:04:09;100965.66;;;15.32;68.76
76229;BME280;65021;53.174;18.160;2023-05-23T04:06:35;100968.20;;;15.57;68.44
76229;BME280;65021;53.174;18.160;2023-05-23T04:09:02;100961.24;;;15.85;68.35
76229;BME280;65021;53.174;18.160;2023-05-23T04:11:28;100964.17;;;16.19;68.25
76229;BME280;65021;53.174;18.160;2023-05-23T04:13:55;100966.20;;;16.48;67.36
76229;BME280;65021;53.174;18.160;2023-05-23T04:16:22;100963.21;;;16.58;66.99
76229;BME280;65021;53.174;18.160;2023-05-23T04:18:49;100965.43;;;16.84;66.42
76229;BME280;65021;53.174;18.160;2023-05-23T04:21:17;100963.21;;;17.04;66.48
76229;BME280;65021;53.174;18.160;2023-05-23T04:23:43;100957.90;;;17.34;66.18
76229;BME280;65021;53.174;18.160;2023-05-23T04:26:10;100959.89;;;17.63;66.04
76229;BME280;65021;53.174;18.160;2023-05-23T04:28:36;100954.95;;;17.84;65.25
76229;BME280;65021;53.174;18.160;2023-05-23T04:31:05;100956.52;;;18.01;65.60
76229;BME280;65021;53.174;18.160;2023-05-23T04:33:31;100955.63;;;18.02;65.04
76229;BME280;65021;53.174;18.160;2023-05-23T04:35:59;100954.58;;;17.98;64.25
76229;BME280;65021;53.174;18.160;2023-05-23T04:38:26;100954.75;;;17.97;64.00
76229;BME280;65021;53.174;18.160;2023-05-23T04:40:53;100954.39;;;17.92;63.94
76229;BME280;65021;53.174;18.160;2023-05-23T04:43:19;100950.52;;;17.90;64.25
76229;BME280;65021;53.174;18.160;2023-05-23T04:45:47;100954.94;;;18.04;63.45
76229;BME280;65021;53.174;18.160;2023-05-23T04:48:15;100955.49;;;18.20;63.56
76229;BME280;65021;53.174;18.160;2023-05-23T04:50:42;100954.25;;;18.37;63.37
76229;BME280;65021;53.174;18.160;2023-05-23T04:53:09;100955.08;;;18.48;62.68
76229;BME280;65021;53.174;18.160;2023-05-23T04:55:36;100952.03;;;18.63;63.10
76229;BME280;65021;53.174;18.160;2023-05-23T04:58:02;100952.94;;;18.82;61.63
76229;BME280;65021;53.174;18.160;2023-05-23T05:00:29;100957.79;;;18.97;60.96
76229;BME280;65021;53.174;18.160;2023-05-23T05:02:55;100955.98;;;19.13;60.07
76229;BME280;65021;53.174;18.160;2023-05-23T05:05:22;100944.70;;;19.29;59.68
76229;BME280;65021;53.174;18.160;2023-05-23T05:07:49;100944.98;;;19.50;59.18
76229;BME280;65021;53.174;18.160;2023-05-23T05:10:15;100946.53;;;19.61;59.14
76229;BME280;65021;53.174;18.160;2023-05-23T05:12:44;100940.33;;;19.82;58.81
76229;BME280;65021;53.174;18.160;2023-05-23T05:15:12;100938.96;;;20.09;58.22
76229;BME280;65021;53.174;18.160;2023-05-23T05:17:39;100941.13;;;20.19;57.03
76229;BME280;65021;53.174;18.160;2023-05-23T05:20:06;100938.45;;;20.27;56.67
76229;BME280;65021;53.174;18.160;2023-05-23T05:22:34;100936.88;;;20.36;55.39
76229;BME280;65021;53.174;18.160;2023-05-23T05:25:02;100932.14;;;20.46;55.42
76229;BME280;65021;53.174;18.160;2023-05-23T05:27:29;100928.88;;;20.58;55.49
76229;BME280;65021;53.174;18.160;2023-05-23T05:29:55;100928.30;;;20.78;54.25
76229;BME280;65021;53.174;18.160;2023-05-23T05:32:30;100927.08;;;20.95;54.24
76229;BME280;65021;53.174;18.160;2023-05-23T05:35:02;100923.36;;;21.03;53.20
76229;BME280;65021;53.174;18.160;2023-05-23T05:37:29;100923.27;;;21.13;52.69
76229;BME280;65021;53.174;18.160;2023-05-23T05:39:55;100919.81;;;21.29;52.30
76229;BME280;65021;53.174;18.160;2023-05-23T05:42:22;100913.84;;;21.39;52.39
76229;BME280;65021;53.174;18.160;2023-05-23T05:44:49;100915.05;;;21.54;50.87
76229;BME280;65021;53.174;18.160;2023-05-23T05:47:15;100911.30;;;21.58;50.85
76229;BME280;65021;53.174;18.160;2023-05-23T05:49:42;100906.31;;;21.71;49.96
76229;BME280;65021;53.174;18.160;2023-05-23T05:52:09;100907.48;;;21.89;50.46
76229;BME280;65021;53.174;18.160;2023-05-23T05:54:35;100913.48;;;22.06;48.71
76229;BME280;65021;53.174;18.160;2023-05-23T05:57:02;100910.29;;;22.03;47.10
76229;BME280;65021;53.174;18.160;2023-05-23T05:59:29;100911.27;;;21.96;47.31
76229;BME280;65021;53.174;18.160;2023-05-23T06:01:56;100905.23;;;21.99;46.74
76229;BME280;65021;53.174;18.160;2023-05-23T06:04:22;100905.00;;;22.04;47.85
76229;BME280;65021;53.174;18.160;2023-05-23T06:06:49;100900.75;;;22.23;47.13
76229;BME280;65021;53.174;18.160;2023-05-23T06:09:16;100897.97;;;22.42;47.52
76229;BME280;65021;53.174;18.160;2023-05-23T06:11:43;100895.33;;;22.69;46.14
76229;BME280;65021;53.174;18.160;2023-05-23T06:14:09;100896.02;;;22.74;45.79
76229;BME280;65021;53.174;18.160;2023-05-23T06:16:36;100897.60;;;22.73;46.70
76229;BME280;65021;53.174;18.160;2023-05-23T06:19:03;100900.77;;;22.91;45.22
76229;BME280;65021;53.174;18.160;2023-05-23T06:21:29;100895.44;;;23.11;46.08
76229;BME280;65021;53.174;18.160;2023-05-23T06:23:56;100885.20;;;23.36;44.93
76229;BME280;65021;53.174;18.160;2023-05-23T06:26:23;100882.34;;;23.56;45.07
76229;BME280;65021;53.174;18.160;2023-05-23T06:28:49;100880.66;;;23.59;44.51
76229;BME280;65021;53.174;18.160;2023-05-23T06:31:16;100879.23;;;23.50;43.69
76229;BME280;65021;53.174;18.160;2023-05-23T06:33:42;100875.14;;;23.44;44.58
76229;BME280;65021;53.174;18.160;2023-05-23T06:36:09;100876.44;;;23.70;44.82
76229;BME280;65021;53.174;18.160;2023-05-23T06:38:35;100874.30;;;23.96;43.98
76229;BME280;65021;53.174;18.160;2023-05-23T06:41:02;100873.09;;;24.05;44.01
76229;BME280;65021;53.174;18.160;2023-05-23T06:43:29;100870.09;;;24.22;42.63
76229;BME280;65021;53.174;18.160;2023-05-23T06:45:56;100870.50;;;24.43;41.19
76229;BME280;65021;53.174;18.160;2023-05-23T06:48:22;100870.33;;;24.46;41.33
76229;BME280;65021;53.174;18.160;2023-05-23T06:50:49;100869.94;;;24.57;41.79
76229;BME280;65021;53.174;18.160;2023-05-23T06:53:16;100865.98;;;24.74;40.28
76229;BME280;65021;53.174;18.160;2023-05-23T06:55:43;100867.45;;;24.86;39.48
76229;BME280;65021;53.174;18.160;2023-05-23T06:58:10;100863.89;;;25.12;39.47
76229;BME280;65021;53.174;18.160;2023-05-23T07:00:36;100860.70;;;25.64;39.86
76229;BME280;65021;53.174;18.160;2023-05-23T07:03:04;100855.75;;;26.07;38.21
76229;BME280;65021;53.174;18.160;2023-05-23T07:05:32;100852.77;;;25.93;36.93
76229;BME280;65021;53.174;18.160;2023-05-23T07:07:59;100844.25;;;25.77;36.07
76229;BME280;65021;53.174;18.160;2023-05-23T07:10:26;100841.78;;;25.43;34.73
76229;BME280;65021;53.174;18.160;2023-05-23T07:12:52;100846.66;;;25.22;36.81
76229;BME280;65021;53.174;18.160;2023-05-23T07:15:19;100843.19;;;25.34;37.13
76229;BME280;65021;53.174;18.160;2023-05-23T07:17:45;100840.42;;;25.30;36.37
76229;BME280;65021;53.174;18.160;2023-05-23T07:20:12;100836.83;;;25.14;36.88
76229;BME280;65021;53.174;18.160;2023-05-23T07:22:39;100836.54;;;25.06;36.71
76229;BME280;65021;53.174;18.160;2023-05-23T07:25:06;100832.61;;;25.00;36.79
76229;BME280;65021;53.174;18.160;2023-05-23T07:27:33;100832.08;;;24.93;36.80
76229;BME280;65021;53.174;18.160;2023-05-23T07:30:00;100830.60;;;24.85;36.33
76229;BME280;65021;53.174;18.160;2023-05-23T07:32:26;100831.68;;;24.80;36.56
76229;BME280;65021;53.174;18.160;2023-05-23T07:34:53;100829.83;;;24.86;36.29
76229;BME280;65021;53.174;18.160;2023-05-23T07:37:19;100829.92;;;25.01;36.18
76229;BME280;65021;53.174;18.160;2023-05-23T07:39:46;100826.41;;;25.12;35.88
76229;BME280;65021;53.174;18.160;2023-05-23T07:42:12;100820.38;;;25.10;35.16
76229;BME280;65021;53.174;18.160;2023-05-23T07:44:40;100822.39;;;25.13;35.26
76229;BME280;65021;53.174;18.160;2023-05-23T07:47:06;100817.10;;;25.11;34.97
76229;BME280;65021;53.174;18.160;2023-05-23T07:49:33;100819.36;;;25.14;35.28
76229;BME280;65021;53.174;18.160;2023-05-23T07:52:01;100820.98;;;25.30;35.29
76229;BME280;65021;53.174;18.160;2023-05-23T07:54:27;100818.31;;;25.40;34.57
76229;BME280;65021;53.174;18.160;2023-05-23T07:56:54;100817.02;;;25.39;33.61
76229;BME280;65021;53.174;18.160;2023-05-23T07:59:20;100814.95;;;25.45;33.41
76229;BME280;65021;53.174;18.160;2023-05-23T08:01:47;100813.94;;;25.37;33.63
76229;BME280;65021;53.174;18.160;2023-05-23T08:04:16;100813.09;;;25.40;34.29
76229;BME280;65021;53.174;18.160;2023-05-23T08:06:43;100813.26;;;25.55;34.10
76229;BME280;65021;53.174;18.160;2023-05-23T08:09:12;100807.67;;;25.62;32.69
76229;BME280;65021;53.174;18.160;2023-05-23T08:11:39;100812.36;;;25.73;32.69
76229;BME280;65021;53.174;18.160;2023-05-23T08:14:05;100810.48;;;25.79;32.62
76229;BME280;65021;53.174;18.160;2023-05-23T08:16:33;100809.04;;;25.86;32.32
76229;BME280;65021;53.174;18.160;2023-05-23T08:19:00;100811.17;;;25.96;31.52
76229;BME280;65021;53.174;18.160;2023-05-23T08:21:26;100805.27;;;26.00;31.87
76229;BME280;65021;53.174;18.160;2023-05-23T08:23:53;100803.20;;;26.06;31.62
76229;BME280;65021;53.174;18.160;2023-05-23T08:26:20;100798.22;;;26.01;31.71
76229;BME280;65021;53.174;18.160;2023-05-23T08:28:47;100800.11;;;26.06;32.03
76229;BME280;65021;53.174;18.160;2023-05-23T08:31:13;100797.94;;;26.16;31.88
76229;BME280;65021;53.174;18.160;2023-05-23T08:33:40;100791.88;;;26.23;31.93
76229;BME280;65021;53.174;18.160;2023-05-23T08:36:07;100786.69;;;26.46;32.06
76229;BME280;65021;53.174;18.160;2023-05-23T08:38:33;100783.95;;;26.65;31.34
76229;BME280;65021;53.174;18.160;2023-05-23T08:41:00;100784.14;;;26.86;31.26
76229;BME280;65021;53.174;18.160;2023-05-23T08:43:27;100778.06;;;27.11;31.28
76229;BME280;65021;53.174;18.160;2023-05-23T08:45:54;100772.23;;;27.29;30.17
76229;BME280;65021;53.174;18.160;2023-05-23T08:48:21;100775.97;;;27.16;28.95
76229;BME280;65021;53.174;18.160;2023-05-23T08:50:51;100776.14;;;26.88;28.39
76229;BME280;65021;53.174;18.160;2023-05-23T08:53:19;100776.42;;;26.53;29.23
76229;BME280;65021;53.174;18.160;2023-05-23T08:55:46;100778.52;;;26.39;29.11
76229;BME280;65021;53.174;18.160;2023-05-23T08:58:14;100781.17;;;26.25;29.62
76229;BME280;65021;53.174;18.160;2023-05-23T09:00:42;100779.81;;;26.21;29.56
76229;BME280;65021;53.174;18.160;2023-05-23T09:03:08;100782.36;;;26.24;29.56
76229;BME280;65021;53.174;18.160;2023-05-23T09:05:35;100775.64;;;26.25;29.63
76229;BME280;65021;53.174;18.160;2023-05-23T09:08:01;100776.71;;;26.30;29.71
76229;BME280;65021;53.174;18.160;2023-05-23T09:10:28;100777.11;;;26.38;29.19
76229;BME280;65021;53.174;18.160;2023-05-23T09:12:55;100772.04;;;26.40;29.13
76229;BME280;65021;53.174;18.160;2023-05-23T09:15:21;100769.25;;;26.35;29.30
76229;BME280;65021;53.174;18.160;2023-05-23T09:17:49;100768.30;;;26.44;29.30
76229;BME280;65021;53.174;18.160;2023-05-23T09:20:16;100769.70;;;26.65;29.44
76229;BME280;65021;53.174;18.160;2023-05-23T09:22:47;100764.45;;;26.85;28.62
76229;BME280;65021;53.174;18.160;2023-05-23T09:25:14;100765.85;;;26.85;27.97
76229;BME280;65021;53.174;18.160;2023-05-23T09:27:42;100760.60;;;26.89;28.55
76229;BME280;65021;53.174;18.160;2023-05-23T09:30:10;100763.89;;;26.94;28.58
76229;BME280;65021;53.174;18.160;2023-05-23T09:32:38;100764.05;;;26.87;28.64
76229;BME280;65021;53.174;18.160;2023-05-23T09:35:06;100767.23;;;26.80;28.61
76229;BME280;65021;53.174;18.160;2023-05-23T09:37:42;100761.26;;;26.75;28.05
76229;BME280;65021;53.174;18.160;2023-05-23T09:40:12;100768.84;;;26.67;27.62
76229;BME280;65021;53.174;18.160;2023-05-23T09:42:43;100772.95;;;26.51;28.30
76229;BME280;65021;53.174;18.160;2023-05-23T09:45:11;100772.25;;;26.48;28.25
76229;BME280;65021;53.174;18.160;2023-05-23T09:47:38;100770.17;;;26.44;28.46
76229;BME280;65021;53.174;18.160;2023-05-23T09:50:05;100768.75;;;26.43;28.57
76229;BME280;65021;53.174;18.160;2023-05-23T09:52:37;100766.67;;;26.38;28.49
76229;BME280;65021;53.174;18.160;2023-05-23T09:55:04;100769.06;;;26.27;28.15
76229;BME280;65021;53.174;18.160;2023-05-23T09:57:36;100769.75;;;26.35;28.02
76229;BME280;65021;53.174;18.160;2023-05-23T10:00:06;100762.52;;;26.53;27.96
76229;BME280;65021;53.174;18.160;2023-05-23T10:05:37;100751.34;;;26.74;27.49
76229;BME280;65021;53.174;18.160;2023-05-23T10:08:13;100751.40;;;26.75;27.93
76229;BME280;65021;53.174;18.160;2023-05-23T10:13:44;100754.58;;;26.84;27.69
76229;BME280;65021;53.174;18.160;2023-05-23T10:16:27;100748.73;;;26.74;27.53
76229;BME280;65021;53.174;18.160;2023-05-23T10:18:59;100753.98;;;26.61;27.94
76229;BME280;65021;53.174;18.160;2023-05-23T10:21:32;100756.70;;;26.48;28.01
76229;BME280;65021;53.174;18.160;2023-05-23T10:24:03;100758.98;;;26.24;27.81
76229;BME280;65021;53.174;18.160;2023-05-23T10:26:30;100762.39;;;26.17;28.30
76229;BME280;65021;53.174;18.160;2023-05-23T10:28:56;100763.52;;;26.06;28.22
76229;BME280;65021;53.174;18.160;2023-05-23T10:31:24;100766.54;;;25.98;28.43
76229;BME280;65021;53.174;18.160;2023-05-23T10:34:10;100760.48;;;26.12;28.24
76229;BME280;65021;53.174;18.160;2023-05-23T10:36:56;100758.08;;;26.19;28.37
76229;BME280;65021;53.174;18.160;2023-05-23T10:44:52;100753.91;;;26.27;28.02
76229;BME280;65021;53.174;18.160;2023-05-23T10:47:25;100752.53;;;26.27;28.43
76229;BME280;65021;53.174;18.160;2023-05-23T10:49:55;100757.05;;;26.51;28.66
76229;BME280;65021;53.174;18.160;2023-05-23T10:52:23;100754.48;;;26.73;28.31
76229;BME280;65021;53.174;18.160;2023-05-23T10:54:53;100744.94;;;26.88;28.25
76229;BME280;65021;53.174;18.160;2023-05-23T10:57:25;100744.57;;;27.12;27.89
76229;BME280;65021;53.174;18.160;2023-05-23T10:59:53;100737.95;;;27.19;27.56
76229;BME280;65021;53.174;18.160;2023-05-23T11:02:27;100739.88;;;26.86;27.16
76229;BME280;65021;53.174;18.160;2023-05-23T11:05:33;100745.75;;;26.54;28.54
76229;BME280;65021;53.174;18.160;2023-05-23T11:08:12;100743.23;;;26.48;28.65
76229;BME280;65021;53.174;18.160;2023-05-23T11:10:59;100746.42;;;26.48;28.69
76229;BME280;65021;53.174;18.160;2023-05-23T11:16:41;100749.91;;;26.51;28.13
76229;BME280;65021;53.174;18.160;2023-05-23T11:21:45;100737.79;;;26.14;28.51
76229;BME280;65021;53.174;18.160;2023-05-23T11:24:14;100736.69;;;26.01;28.50
76229;BME280;65021;53.174;18.160;2023-05-23T11:26:51;100734.04;;;25.91;28.59
76229;BME280;65021;53.174;18.160;2023-05-23T11:29:19;100733.96;;;25.91;29.01
76229;BME280;65021;53.174;18.160;2023-05-23T11:31:45;100731.25;;;26.01;29.16
76229;BME280;65021;53.174;18.160;2023-05-23T11:34:12;100725.99;;;26.13;28.94
76229;BME280;65021;53.174;18.160;2023-05-23T11:36:39;100726.10;;;26.28;29.01
76229;BME280;65021;53.174;18.160;2023-05-23T11:39:06;100724.06;;;26.37;28.63
76229;BME280;65021;53.174;18.160;2023-05-23T11:41:33;100721.70;;;26.28;28.50
76229;BME280;65021;53.174;18.160;2023-05-23T11:44:01;100725.17;;;26.12;28.73
76229;BME280;65021;53.174;18.160;2023-05-23T11:46:27;100718.17;;;25.97;28.66
76229;BME280;65021;53.174;18.160;2023-05-23T11:48:54;100721.06;;;25.88;28.69
76229;BME280;65021;53.174;18.160;2023-05-23T11:51:21;100717.96;;;25.79;28.48
76229;BME280;65021;53.174;18.160;2023-05-23T11:53:47;100715.45;;;25.64;28.73
76229;BME280;65021;53.174;18.160;2023-05-23T11:56:14;100718.32;;;25.55;28.74
76229;BME280;65021;53.174;18.160;2023-05-23T11:58:42;100716.30;;;25.39;28.28
76229;BME280;65021;53.174;18.160;2023-05-23T12:01:11;100718.02;;;25.27;28.45
76229;BME280;65021;53.174;18.160;2023-05-23T12:03:45;100717.03;;;25.15;28.35
76229;BME280;65021;53.174;18.160;2023-05-23T12:06:17;100715.70;;;24.94;28.20
76229;BME280;65021;53.174;18.160;2023-05-23T12:08:46;100712.65;;;24.73;28.66
76229;BME280;65021;53.174;18.160;2023-05-23T12:11:13;100709.15;;;24.59;29.12
76229;BME280;65021;53.174;18.160;2023-05-23T12:13:41;100708.11;;;24.52;29.11
76229;BME280;65021;53.174;18.160;2023-05-23T12:16:07;100706.35;;;24.45;29.55
76229;BME280;65021;53.174;18.160;2023-05-23T12:18:36;100703.91;;;24.32;29.27
76229;BME280;65021;53.174;18.160;2023-05-23T12:21:04;100708.02;;;24.17;29.76
76229;BME280;65021;53.174;18.160;2023-05-23T12:23:34;100711.23;;;24.14;30.23
76229;BME280;65021;53.174;18.160;2023-05-23T12:26:04;100713.38;;;24.22;30.35
76229;BME280;65021;53.174;18.160;2023-05-23T12:28:39;100709.77;;;24.34;30.46
76229;BME280;65021;53.174;18.160;2023-05-23T12:31:10;100708.70;;;24.54;30.39
76229;BME280;65021;53.174;18.160;2023-05-23T12:33:41;100707.37;;;24.71;30.44
76229;BME280;65021;53.174;18.160;2023-05-23T12:36:11;100702.38;;;24.90;30.34
76229;BME280;65021;53.174;18.160;2023-05-23T12:38:38;100702.89;;;25.05;30.49
76229;BME280;65021;53.174;18.160;2023-05-23T12:41:07;100707.55;;;25.17;30.35
76229;BME280;65021;53.174;18.160;2023-05-23T12:43:37;100707.10;;;25.23;30.18
76229;BME280;65021;53.174;18.160;2023-05-23T12:46:04;100707.70;;;25.25;30.25
76229;BME280;65021;53.174;18.160;2023-05-23T12:48:31;100703.66;;;25.24;30.03
76229;BME280;65021;53.174;18.160;2023-05-23T12:50:58;100701.30;;;25.17;30.31
76229;BME280;65021;53.174;18.160;2023-05-23T12:53:25;100698.79;;;25.18;30.20
76229;BME280;65021;53.174;18.160;2023-05-23T12:55:53;100695.77;;;25.18;29.91
76229;BME280;65021;53.174;18.160;2023-05-23T12:58:19;100696.86;;;25.16;30.02
76229;BME280;65021;53.174;18.160;2023-05-23T13:00:46;100691.66;;;25.20;29.91
76229;BME280;65021;53.174;18.160;2023-05-23T13:03:12;100692.52;;;25.26;29.70